Time,TemperatureF,DewpointF,PressureIn,WindDirection,WindDirectionDegrees,WindSpeedMPH,WindSpeedGustMPH,Humidity,HourlyPrecipIn,Conditions,Clouds,dailyrainin,SolarRadiationWatts/m^2,SoftwareType,DateUTC
2013-08-24 00:01:00,58.7,56.4,30.15,NNE,19,0.0,0.0,92,0.00,RA,,0.00,0.0,WeatherDisplay:10.37,2013-08-24 05:01:00,
2013-08-24 00:06:00,58.4,55.8,30.15,NNE,19,0.0,0.0,91,0.00,RA,,0.00,0.0,WeatherDisplay:10.37,2013-08-24 05:06:00,
2013-08-24 00:11:00,58.3,56.0,30.15,NNE,19,0.0,0.0,92,0.00,RA,,0.00,0.0,WeatherDisplay:10.37,2013-08-24 05:11:00,
2013-08-24 00:16:00,58.5,56.5,30.15,NNE,19,0.0,0.0,93,0.00,CLR,,0.00,0.0,WeatherDisplay:10.37,2013-08-24 05:16:00,
2013-08-24 00:21:00,58.7,56.7,30.15,NNE,19,0.0,0.0,93,0.00,CLR,,0.00,0.0,WeatherDisplay:10.37,2013-08-24 05:21:00,
2013-08-24 00:26:00,58.7,56.4,30.16,NNE,19,2.3,2.3,92,0.00,CLR,,0.00,0.0,WeatherDisplay:10.37,2013-08-24 05:26:00,
2013-08-24 00:31:00,58.6,56.3,30.16,NNE,19,1.1,1.1,92,0.00,CLR,,0.00,0.0,WeatherDisplay:10.37,2013-08-24 05:31:00,
2013-08-24 00:36:00,58.2,55.6,30.16,NNE,19,1.0,1.0,91,0.00,CLR,,0.00,0.0,WeatherDisplay:10.37,2013-08-24 05:36:00,
2013-08-24 00:41:00,57.8,55.2,30.16,NNE,19,2.3,2.3,91,0.00,CLR,,0.00,0.0,WeatherDisplay:10.37,2013-08-24 05:41:00,
2013-08-24 00:46:00,57.7,55.7,30.16,NNE,19,2.3,2.3,93,0.00,CLR,,0.00,0.0,WeatherDisplay:10.37,2013-08-24 05:46:00,
2013-08-24 00:51:00,57.8,55.8,30.16,NNE,19,0.0,0.0,93,0.00,CLR,,0.00,0.0,WeatherDisplay:10.37,2013-08-24 05:51:00,
2013-08-24 00:56:00,58.0,56.3,30.16,NNE,19,0.0,0.0,94,0.00,CLR,,0.00,0.0,WeatherDisplay:10.37,2013-08-24 05:56:00,
2013-08-24 01:01:00,58.0,56.0,30.16,NNE,19,0.0,0.0,93,0.00,CLR,,0.00,0.0,WeatherDisplay:10.37,2013-08-24 06:01:00,
2013-08-24 01:06:00,57.8,55.8,30.16,NNE,19,0.0,0.0,93,0.00,CLR,,0.00,0.0,WeatherDisplay:10.37,2013-08-24 06:06:00,
2013-08-24 01:11:00,57.7,55.7,30.16,NNE,19,0.0,0.0,93,0.00,CLR,,0.00,0.0,WeatherDisplay:10.37,2013-08-24 06:11:00,
2013-08-24 01:16:00,57.7,55.7,30.16,NNE,19,0.0,0.0,93,0.00,CLR,,0.00,0.0,WeatherDisplay:10.37,2013-08-24 06:16:00,
2013-08-24 01:21:00,57.7,56.0,30.16,NNE,19,0.0,0.0,94,0.00,CLR,,0.00,0.0,WeatherDisplay:10.37,2013-08-24 06:21:00,
2013-08-24 01:26:00,57.7,56.0,30.16,NNE,19,0.0,0.0,94,0.00,CLR,,0.00,0.0,WeatherDisplay:10.37,2013-08-24 06:26:00,
2013-08-24 01:31:00,57.6,55.6,30.16,NNE,19,0.0,0.0,93,0.00,CLR,,0.00,0.0,WeatherDisplay:10.37,2013-08-24 06:31:00,
2013-08-24 01:36:00,57.5,55.8,30.16,NNE,19,0.0,0.0,94,0.00,CLR,,0.00,0.0,WeatherDisplay:10.37,2013-08-24 06:36:00,
2013-08-24 01:41:00,57.5,55.8,30.16,NNE,19,0.0,0.0,94,0.00,CLR,,0.00,0.0,WeatherDisplay:10.37,2013-08-24 06:41:00,
2013-08-24 01:46:00,57.5,55.8,30.16,NNE,19,0.0,0.0,94,0.00,CLR,,0.00,0.0,WeatherDisplay:10.37,2013-08-24 06:46:00,
2013-08-24 01:51:00,57.3,55.3,30.16,NNE,19,0.0,0.0,93,0.00,CLR,,0.00,0.0,WeatherDisplay:10.37,2013-08-24 06:51:00,
2013-08-24 01:56:00,57.1,55.1,30.16,NNE,19,0.0,0.0,93,0.00,CLR,,0.00,0.0,WeatherDisplay:10.37,2013-08-24 06:56:00,
2013-08-24 02:01:00,57.1,55.4,30.16,NNE,19,0.0,0.0,94,0.00,CLR,,0.00,0.0,WeatherDisplay:10.37,2013-08-24 07:01:00,
2013-08-24 02:06:00,57.1,55.4,30.16,NNE,19,0.0,0.0,94,0.00,CLR,,0.00,0.0,WeatherDisplay:10.37,2013-08-24 07:06:00,
2013-08-24 02:11:00,57.1,55.4,30.16,NNE,19,0.0,0.0,94,0.00,CLR,,0.00,0.0,WeatherDisplay:10.37,2013-08-24 07:11:00,
2013-08-24 02:16:00,57.1,55.4,30.16,NNE,19,0.0,0.0,94,0.00,CLR,,0.00,0.0,WeatherDisplay:10.37,2013-08-24 07:16:00,
2013-08-24 02:21:00,57.1,55.4,30.16,NNE,19,0.0,0.0,94,0.00,CLR,,0.00,0.0,WeatherDisplay:10.37,2013-08-24 07:21:00,
2013-08-24 02:26:00,57.1,55.4,30.17,NNE,19,0.0,0.0,94,0.00,CLR,,0.00,0.0,WeatherDisplay:10.37,2013-08-24 07:26:00,
2013-08-24 02:31:00,57.1,55.4,30.17,NNE,19,0.0,0.0,94,0.00,CLR,,0.00,0.0,WeatherDisplay:10.37,2013-08-24 07:31:00,
2013-08-24 02:37:00,57.0,55.3,30.17,NNE,19,0.0,0.0,94,0.00,CLR,,0.00,0.0,WeatherDisplay:10.37,2013-08-24 07:37:00,
2013-08-24 02:42:00,56.9,54.9,30.17,NNE,19,0.0,0.0,93,0.00,CLR,,0.00,0.0,WeatherDisplay:10.37,2013-08-24 07:42:00,
2013-08-24 02:47:00,56.5,54.5,30.17,NNE,19,0.0,0.0,93,0.00,CLR,,0.00,0.0,WeatherDisplay:10.37,2013-08-24 07:47:00,
2013-08-24 02:52:00,56.3,54.3,30.17,NNE,19,0.0,0.0,93,0.00,CLR,,0.00,0.0,WeatherDisplay:10.37,2013-08-24 07:52:00,
2013-08-24 02:57:00,56.2,54.2,30.17,NNE,19,0.0,0.0,93,0.00,CLR,,0.00,0.0,WeatherDisplay:10.37,2013-08-24 07:57:00,
2013-08-24 03:02:00,56.0,54.3,30.17,NNE,19,0.0,0.0,94,0.00,CLR,,0.00,0.0,WeatherDisplay:10.37,2013-08-24 08:02:00,
2013-08-24 03:07:00,56.0,54.3,30.17,NNE,19,0.0,0.0,94,0.00,CLR,,0.00,0.0,WeatherDisplay:10.37,2013-08-24 08:07:00,
2013-08-24 03:12:00,56.2,54.8,30.17,NNE,19,0.0,0.0,95,0.00,CLR,,0.00,0.0,WeatherDisplay:10.37,2013-08-24 08:12:00,
2013-08-24 03:17:00,56.3,54.9,30.17,NNE,19,0.0,0.0,95,0.00,CLR,,0.00,0.0,WeatherDisplay:10.37,2013-08-24 08:17:00,
2013-08-24 03:22:00,56.4,55.0,30.18,NNE,19,0.0,0.0,95,0.00,CLR,,0.00,0.0,WeatherDisplay:10.37,2013-08-24 08:22:00,
2013-08-24 03:27:00,56.5,55.1,30.18,NNE,19,0.0,0.0,95,0.00,CLR,,0.00,0.0,WeatherDisplay:10.37,2013-08-24 08:27:00,
2013-08-24 03:32:00,56.3,54.6,30.18,NNE,19,0.0,0.0,94,0.00,CLR,,0.00,0.0,WeatherDisplay:10.37,2013-08-24 08:32:00,
2013-08-24 03:37:00,56.2,54.5,30.18,NNE,19,0.0,0.0,94,0.00,CLR,,0.00,0.0,WeatherDisplay:10.37,2013-08-24 08:37:00,
2013-08-24 03:42:00,56.3,54.6,30.18,NNE,19,0.0,0.0,94,0.00,CLR,,0.00,0.0,WeatherDisplay:10.37,2013-08-24 08:42:00,
2013-08-24 03:47:00,56.3,54.6,30.18,NNE,19,0.0,0.0,94,0.00,CLR,,0.00,0.0,WeatherDisplay:10.37,2013-08-24 08:47:00,
2013-08-24 03:52:00,56.3,54.9,30.18,NNE,19,0.0,0.0,95,0.00,CLR,,0.00,0.0,WeatherDisplay:10.37,2013-08-24 08:52:00,
2013-08-24 03:57:00,56.4,55.0,30.18,NNE,19,0.0,0.0,95,0.00,CLR,,0.00,0.0,WeatherDisplay:10.37,2013-08-24 08:57:00,
2013-08-24 04:02:00,56.1,54.4,30.18,NNE,19,0.0,0.0,94,0.00,CLR,,0.00,0.0,WeatherDisplay:10.37,2013-08-24 09:02:00,
2013-08-24 04:07:00,55.9,53.9,30.18,NNE,19,0.0,0.0,93,0.00,CLR,,0.00,0.0,WeatherDisplay:10.37,2013-08-24 09:07:00,
2013-08-24 04:12:00,55.9,54.2,30.18,NNE,19,0.0,0.0,94,0.00,CLR,,0.00,0.0,WeatherDisplay:10.37,2013-08-24 09:12:00,
2013-08-24 04:17:00,56.1,54.7,30.19,NNE,19,0.0,0.0,95,0.00,CLR,,0.00,0.0,WeatherDisplay:10.37,2013-08-24 09:17:00,
2013-08-24 04:22:00,56.2,54.8,30.19,NNE,19,0.0,0.0,95,0.00,CLR,,0.00,0.0,WeatherDisplay:10.37,2013-08-24 09:22:00,
2013-08-24 04:27:00,55.7,53.7,30.19,NNE,19,0.0,0.0,93,0.00,CLR,,0.00,0.0,WeatherDisplay:10.37,2013-08-24 09:27:00,
2013-08-24 04:32:00,55.3,53.3,30.19,NNE,19,0.0,0.0,93,0.00,CLR,,0.00,0.0,WeatherDisplay:10.37,2013-08-24 09:32:00,
2013-08-24 04:37:00,55.3,53.6,30.19,NNE,19,0.0,0.0,94,0.00,CLR,,0.00,0.0,WeatherDisplay:10.37,2013-08-24 09:37:00,
2013-08-24 04:42:00,55.5,54.1,30.19,NNE,19,0.0,0.0,95,0.00,CLR,,0.00,0.0,WeatherDisplay:10.37,2013-08-24 09:42:00,
2013-08-24 04:47:00,55.7,54.3,30.20,NNE,19,0.0,0.0,95,0.00,CLR,,0.00,0.0,WeatherDisplay:10.37,2013-08-24 09:47:00,
2013-08-24 04:52:00,55.4,53.7,30.20,NNE,19,0.0,0.0,94,0.00,CLR,,0.00,0.0,WeatherDisplay:10.37,2013-08-24 09:52:00,
2013-08-24 04:57:00,54.9,52.9,30.19,NNE,19,0.0,0.0,93,0.00,CLR,,0.00,0.0,WeatherDisplay:10.37,2013-08-24 09:57:00,
2013-08-24 05:02:00,54.7,53.0,30.20,NNE,19,0.0,0.0,94,0.00,CLR,,0.00,0.0,WeatherDisplay:10.37,2013-08-24 10:02:00,
2013-08-24 05:07:00,54.7,53.0,30.20,NNE,19,0.0,0.0,94,0.00,CLR,,0.00,0.0,WeatherDisplay:10.37,2013-08-24 10:07:00,
2013-08-24 05:12:00,54.8,53.4,30.20,NNE,19,0.0,0.0,95,0.00,CLR,,0.00,0.0,WeatherDisplay:10.37,2013-08-24 10:12:00,
2013-08-24 05:17:00,54.8,53.1,30.20,NNE,19,0.0,0.0,94,0.00,CLR,,0.00,0.0,WeatherDisplay:10.37,2013-08-24 10:17:00,
2013-08-24 05:22:00,55.1,54.0,30.20,NNE,19,0.0,0.0,96,0.00,CLR,,0.00,0.0,WeatherDisplay:10.37,2013-08-24 10:22:00,
2013-08-24 05:27:00,55.0,53.6,30.20,NNE,19,0.0,0.0,95,0.00,CLR,,0.00,0.0,WeatherDisplay:10.37,2013-08-24 10:27:00,
2013-08-24 05:32:00,54.7,53.3,30.20,NNE,19,0.0,0.0,95,0.00,CLR,,0.00,0.0,WeatherDisplay:10.37,2013-08-24 10:32:00,
2013-08-24 05:37:00,54.7,53.3,30.20,NNE,19,0.0,0.0,95,0.00,CLR,,0.00,0.0,WeatherDisplay:10.37,2013-08-24 10:37:00,
2013-08-24 05:42:00,54.6,53.2,30.21,NNE,19,0.0,0.0,95,0.00,CLR,,0.00,0.0,WeatherDisplay:10.37,2013-08-24 10:42:00,
2013-08-24 05:47:00,54.6,53.5,30.21,NNE,19,0.0,0.0,96,0.00,CLR,,0.00,0.0,WeatherDisplay:10.37,2013-08-24 10:47:00,
2013-08-24 05:52:00,54.8,53.7,30.21,NNE,19,0.0,0.0,96,0.00,CLR,,0.00,0.0,WeatherDisplay:10.37,2013-08-24 10:52:00,
2013-08-24 05:57:00,55.3,54.2,30.21,NNE,19,0.0,0.0,96,0.00,CLR,,0.00,0.0,WeatherDisplay:10.37,2013-08-24 10:57:00,
2013-08-24 06:02:00,54.8,53.4,30.21,NNE,19,0.0,0.0,95,0.00,CLR,,0.00,0.0,WeatherDisplay:10.37,2013-08-24 11:02:00,
2013-08-24 06:07:00,54.7,53.6,30.22,NNE,19,0.0,0.0,96,0.00,CLR,,0.00,0.0,WeatherDisplay:10.37,2013-08-24 11:07:00,
2013-08-24 06:12:00,55.0,53.9,30.22,NNE,19,0.0,0.0,96,0.00,CLR,,0.00,0.0,WeatherDisplay:10.37,2013-08-24 11:12:00,
2013-08-24 06:17:00,55.3,54.2,30.22,NNE,19,0.0,0.0,96,0.00,CLR,,0.00,5.0,WeatherDisplay:10.37,2013-08-24 11:17:00,
2013-08-24 06:22:00,55.5,54.4,30.22,NNE,19,0.0,0.0,96,0.00,CLR,,0.00,7.0,WeatherDisplay:10.37,2013-08-24 11:22:00,
2013-08-24 06:27:00,55.6,54.5,30.23,NNE,19,0.0,0.0,96,0.00,CLR,,0.00,9.0,WeatherDisplay:10.37,2013-08-24 11:27:00,
2013-08-24 06:32:00,55.7,54.6,30.23,NNE,19,0.0,0.0,96,0.00,CLR,,0.00,12.0,WeatherDisplay:10.37,2013-08-24 11:32:00,
2013-08-24 06:37:00,55.3,53.9,30.22,NNE,19,0.0,0.0,95,0.00,CLR,,0.00,16.0,WeatherDisplay:10.37,2013-08-24 11:37:00,
2013-08-24 06:42:00,55.5,54.4,30.23,NNE,19,0.0,0.0,96,0.00,CLR,,0.00,18.0,WeatherDisplay:10.37,2013-08-24 11:42:00,
2013-08-24 06:47:00,55.9,54.8,30.23,NNE,19,0.0,0.0,96,0.00,CLR,,0.00,19.0,WeatherDisplay:10.37,2013-08-24 11:47:00,
2013-08-24 06:52:00,56.5,55.7,30.23,NNE,19,0.0,0.0,97,0.00,CLR,,0.00,21.0,WeatherDisplay:10.37,2013-08-24 11:52:00,
2013-08-24 06:57:00,56.8,56.0,30.23,NNE,19,0.0,0.0,97,0.00,CLR,,0.00,23.0,WeatherDisplay:10.37,2013-08-24 11:57:00,
2013-08-24 07:02:00,57.6,56.8,30.23,NNE,19,0.0,0.0,97,0.00,CLR,,0.00,26.0,WeatherDisplay:10.37,2013-08-24 12:02:00,
2013-08-24 07:07:00,58.4,57.6,30.23,NNE,19,0.0,0.0,97,0.00,CLR,,0.00,32.0,WeatherDisplay:10.37,2013-08-24 12:07:00,
2013-08-24 07:12:00,59.0,57.9,30.24,ENE,65,0.0,0.0,96,0.00,CLR,,0.00,44.0,WeatherDisplay:10.37,2013-08-24 12:12:00,
2013-08-24 07:17:00,59.7,58.3,30.24,ENE,65,0.0,0.0,95,0.01,RA,,0.01,65.0,WeatherDisplay:10.37,2013-08-24 12:17:00,
2013-08-24 07:22:00,60.1,58.4,30.24,ENE,65,0.0,0.0,94,0.01,RA,,0.01,88.0,WeatherDisplay:10.37,2013-08-24 12:22:00,
2013-08-24 07:27:00,60.6,58.6,30.23,East,84,3.5,3.5,93,0.01,CLR,,0.01,120.0,WeatherDisplay:10.37,2013-08-24 12:27:00,
2013-08-24 07:32:00,60.9,58.9,30.23,ESE,121,3.5,3.5,93,0.01,CLR,,0.01,149.0,WeatherDisplay:10.37,2013-08-24 12:32:00,
2013-08-24 07:37:00,61.3,59.0,30.24,ESE,110,3.5,3.5,92,0.01,CLR,,0.01,172.0,WeatherDisplay:10.37,2013-08-24 12:37:00,
2013-08-24 07:42:00,61.7,59.4,30.24,ESE,110,1.1,1.1,92,0.01,CLR,,0.01,186.0,WeatherDisplay:10.37,2013-08-24 12:42:00,
2013-08-24 07:47:00,62.3,59.6,30.24,ESE,110,2.3,2.3,91,0.01,CLR,,0.01,202.0,WeatherDisplay:10.37,2013-08-24 12:47:00,
2013-08-24 07:52:00,62.9,59.9,30.24,ESE,110,2.3,2.3,90,0.01,CLR,,0.01,214.0,WeatherDisplay:10.37,2013-08-24 12:52:00,
2013-08-24 07:57:00,63.4,60.1,30.24,ESE,110,3.5,3.5,89,0.01,CLR,,0.01,229.0,WeatherDisplay:10.37,2013-08-24 12:57:00,
2013-08-24 08:02:00,64.0,60.7,30.24,ESE,110,3.5,3.5,89,0.01,CLR,,0.01,241.0,WeatherDisplay:10.37,2013-08-24 13:02:00,
2013-08-24 08:07:00,64.5,61.2,30.24,ESE,111,3.5,3.5,89,0.01,CLR,,0.01,255.0,WeatherDisplay:10.37,2013-08-24 13:07:00,
2013-08-24 08:12:00,65.0,61.0,30.24,ESE,117,3.5,3.5,87,0.01,CLR,,0.01,267.0,WeatherDisplay:10.37,2013-08-24 13:12:00,
2013-08-24 08:21:00,65.8,61.5,30.24,SE,131,5.0,5.0,86,0.00,RA,,0.01,297.0,WeatherDisplay:10.37,2013-08-24 13:21:00,
2013-08-24 08:26:00,66.4,62.4,30.24,SE,131,3.5,3.5,87,0.00,CLR,,0.01,316.0,WeatherDisplay:10.37,2013-08-24 13:26:00,
2013-08-24 08:31:00,67.0,62.7,30.24,SE,130,4.0,4.0,86,0.00,CLR,,0.01,336.0,WeatherDisplay:10.37,2013-08-24 13:31:00,
2013-08-24 08:36:00,67.6,62.6,30.24,SE,132,4.6,4.6,84,0.00,CLR,,0.01,362.0,WeatherDisplay:10.37,2013-08-24 13:36:00,
2013-08-24 08:41:00,68.2,62.8,30.24,SE,139,4.0,4.0,83,0.00,CLR,,0.01,383.0,WeatherDisplay:10.37,2013-08-24 13:41:00,
2013-08-24 08:46:00,68.7,63.7,30.24,SSE,147,3.5,3.5,84,0.00,CLR,,0.01,399.0,WeatherDisplay:10.37,2013-08-24 13:46:00,
2013-08-24 08:51:00,69.3,62.9,30.24,SE,132,6.9,6.9,80,0.00,CLR,,0.01,417.0,WeatherDisplay:10.37,2013-08-24 13:51:00,
2013-08-24 08:56:00,69.8,63.3,30.25,SE,142,5.8,5.8,80,0.00,CLR,,0.01,431.0,WeatherDisplay:10.37,2013-08-24 13:56:00,
2013-08-24 09:01:00,70.3,63.8,30.25,SSE,150,5.8,5.8,80,0.00,CLR,,0.01,443.0,WeatherDisplay:10.37,2013-08-24 14:01:00,
2013-08-24 09:06:00,71.0,63.8,30.25,SE,144,5.8,5.8,78,0.00,CLR,,0.01,457.0,WeatherDisplay:10.37,2013-08-24 14:06:00,
2013-08-24 09:11:00,71.5,63.9,30.25,SE,128,5.8,5.8,77,0.00,CLR,,0.01,469.0,WeatherDisplay:10.37,2013-08-24 14:11:00,
2013-08-24 09:16:00,72.1,63.7,30.25,SE,143,6.9,6.9,75,0.00,CLR,,0.01,485.0,WeatherDisplay:10.37,2013-08-24 14:16:00,
2013-08-24 09:21:00,72.7,63.9,30.24,SE,142,6.9,6.9,74,0.00,CLR,,0.01,496.0,WeatherDisplay:10.37,2013-08-24 14:21:00,
2013-08-24 09:26:00,73.3,64.1,30.24,SE,134,8.1,8.1,73,0.00,CLR,,0.01,513.0,WeatherDisplay:10.37,2013-08-24 14:26:00,
2013-08-24 09:31:00,73.9,63.9,30.24,SE,128,10.4,10.4,71,0.00,CLR,,0.01,527.0,WeatherDisplay:10.37,2013-08-24 14:31:00,
2013-08-24 09:36:00,74.2,63.8,30.25,SE,144,9.2,9.2,70,0.00,CLR,,0.01,541.0,WeatherDisplay:10.37,2013-08-24 14:36:00,
2013-08-24 09:41:00,74.6,64.2,30.24,ESE,107,8.1,8.1,70,0.00,CLR,,0.01,552.0,WeatherDisplay:10.37,2013-08-24 14:41:00,
2013-08-24 09:46:00,75.3,64.4,30.24,SE,142,5.0,5.0,69,0.00,CLR,,0.01,564.0,WeatherDisplay:10.37,2013-08-24 14:46:00,
2013-08-24 09:51:00,75.6,63.0,30.24,SE,143,9.2,9.2,65,0.00,CLR,,0.01,578.0,WeatherDisplay:10.37,2013-08-24 14:51:00,
2013-08-24 09:56:00,75.8,63.6,30.24,SSE,153,8.1,8.1,66,0.00,CLR,,0.01,591.0,WeatherDisplay:10.37,2013-08-24 14:56:00,
2013-08-24 10:01:00,76.1,64.3,30.24,SSE,163,8.1,8.1,67,0.00,CLR,,0.01,603.0,WeatherDisplay:10.37,2013-08-24 15:01:00,
2013-08-24 10:06:00,76.4,64.6,30.24,SE,145,9.0,9.0,67,0.00,CLR,,0.01,613.0,WeatherDisplay:10.37,2013-08-24 15:06:00,
2013-08-24 10:11:00,76.8,63.7,30.24,ESE,123,9.2,9.2,64,0.00,CLR,,0.01,626.0,WeatherDisplay:10.37,2013-08-24 15:11:00,
2013-08-24 10:16:00,77.1,64.0,30.24,SSE,148,8.1,8.1,64,0.00,CLR,,0.01,636.0,WeatherDisplay:10.37,2013-08-24 15:16:00,
2013-08-24 10:21:00,77.4,64.3,30.24,SSE,151,8.1,8.1,64,0.00,CLR,,0.01,649.0,WeatherDisplay:10.37,2013-08-24 15:21:00,
2013-08-24 10:26:00,77.9,63.8,30.24,SE,138,10.4,10.4,62,0.00,CLR,,0.01,656.0,WeatherDisplay:10.37,2013-08-24 15:26:00,
2013-08-24 10:31:00,78.2,64.1,30.24,ESE,121,10.4,10.4,62,0.00,CLR,,0.01,666.0,WeatherDisplay:10.37,2013-08-24 15:31:00,
2013-08-24 10:36:00,78.4,64.8,30.24,SE,140,8.1,8.1,63,0.00,CLR,,0.01,677.0,WeatherDisplay:10.37,2013-08-24 15:36:00,
2013-08-24 10:41:00,78.6,64.0,30.25,SSE,167,10.4,10.4,61,0.00,CLR,,0.01,686.0,WeatherDisplay:10.37,2013-08-24 15:41:00,
2013-08-24 10:46:00,78.9,64.3,30.25,SE,126,9.2,9.2,61,0.00,CLR,,0.01,694.0,WeatherDisplay:10.37,2013-08-24 15:46:00,
2013-08-24 10:51:00,79.1,65.4,30.24,SE,136,9.2,9.2,63,0.00,CLR,,0.01,707.0,WeatherDisplay:10.37,2013-08-24 15:51:00,
2013-08-24 10:56:00,79.6,65.0,30.25,SSE,155,8.1,8.1,61,0.00,CLR,,0.01,714.0,WeatherDisplay:10.37,2013-08-24 15:56:00,
2013-08-24 11:01:00,79.6,64.5,30.25,SSE,151,9.2,9.2,60,0.00,CLR,,0.01,721.0,WeatherDisplay:10.37,2013-08-24 16:01:00,
2013-08-24 11:06:00,79.6,64.0,30.25,South,169,5.8,5.8,59,0.00,CLR,,0.01,724.0,WeatherDisplay:10.37,2013-08-24 16:06:00,
2013-08-24 11:11:00,79.6,65.0,30.24,SSE,167,9.2,9.2,61,0.00,CLR,,0.01,737.0,WeatherDisplay:10.37,2013-08-24 16:11:00,
2013-08-24 11:16:00,79.8,64.7,30.25,SE,141,6.9,6.9,60,0.00,CLR,,0.01,308.0,WeatherDisplay:10.37,2013-08-24 16:16:00,
2013-08-24 11:21:00,79.8,63.7,30.24,South,180,11.5,11.5,58,0.00,CLR,,0.01,754.0,WeatherDisplay:10.37,2013-08-24 16:21:00,
2013-08-24 11:26:00,80.0,64.4,30.24,SE,143,10.4,10.4,59,0.00,CLR,,0.01,761.0,WeatherDisplay:10.37,2013-08-24 16:26:00,
2013-08-24 11:31:00,80.1,64.0,30.24,SE,129,8.1,8.1,58,0.00,CLR,,0.01,772.0,WeatherDisplay:10.37,2013-08-24 16:31:00,
2013-08-24 11:36:00,80.2,64.1,30.24,South,171,11.5,11.5,58,0.00,CLR,,0.01,775.0,WeatherDisplay:10.37,2013-08-24 16:36:00,
2013-08-24 11:41:00,80.2,64.6,30.24,South,169,9.2,9.2,59,0.00,CLR,,0.01,782.0,WeatherDisplay:10.37,2013-08-24 16:41:00,
2013-08-24 11:46:00,80.5,64.9,30.24,SE,133,12.0,12.0,59,0.00,CLR,,0.01,786.0,WeatherDisplay:10.37,2013-08-24 16:46:00,
2013-08-24 11:51:00,80.7,63.5,30.24,SE,125,6.9,6.9,56,0.00,CLR,,0.01,793.0,WeatherDisplay:10.37,2013-08-24 16:51:00,
2013-08-24 11:56:00,81.0,63.8,30.24,SE,137,9.2,9.2,56,0.00,CLR,,0.01,798.0,WeatherDisplay:10.37,2013-08-24 16:56:00,
2013-08-24 12:01:00,81.1,64.4,30.24,South,181,9.2,9.2,57,0.00,CLR,,0.01,800.0,WeatherDisplay:10.37,2013-08-24 17:01:00,
2013-08-24 12:06:00,81.1,63.4,30.24,South,173,9.2,9.2,55,0.00,CLR,,0.01,807.0,WeatherDisplay:10.37,2013-08-24 17:06:00,
2013-08-24 12:11:00,81.3,64.1,30.24,South,180,11.5,11.5,56,0.00,CLR,,0.01,809.0,WeatherDisplay:10.37,2013-08-24 17:11:00,
2013-08-24 12:16:00,81.2,65.0,30.24,SSE,161,8.1,8.1,58,0.00,CLR,,0.01,814.0,WeatherDisplay:10.37,2013-08-24 17:16:00,
2013-08-24 12:21:00,81.5,65.8,30.23,SSW,192,6.0,6.0,59,0.00,CLR,,0.01,817.0,WeatherDisplay:10.37,2013-08-24 17:21:00,
2013-08-24 12:26:00,81.4,63.7,30.23,ESE,119,9.2,9.2,55,0.00,CLR,,0.01,821.0,WeatherDisplay:10.37,2013-08-24 17:26:00,
2013-08-24 12:31:00,81.7,63.4,30.23,SSE,153,10.4,10.4,54,0.00,CLR,,0.01,823.0,WeatherDisplay:10.37,2013-08-24 17:31:00,
2013-08-24 12:36:00,81.9,63.1,30.23,SE,140,9.2,9.2,53,0.00,CLR,,0.01,821.0,WeatherDisplay:10.37,2013-08-24 17:36:00,
2013-08-24 12:41:00,82.2,63.9,30.23,SSE,151,9.2,9.2,54,0.00,CLR,,0.01,819.0,WeatherDisplay:10.37,2013-08-24 17:41:00,
2013-08-24 12:46:00,82.1,63.3,30.23,SSE,147,11.5,11.5,53,0.00,CLR,,0.01,821.0,WeatherDisplay:10.37,2013-08-24 17:46:00,
2013-08-24 12:51:00,82.1,65.4,30.23,SE,136,5.8,5.8,57,0.00,CLR,,0.01,824.0,WeatherDisplay:10.37,2013-08-24 17:51:00,
2013-08-24 12:56:00,82.4,64.1,30.23,ESE,121,4.6,4.6,54,0.00,CLR,,0.01,823.0,WeatherDisplay:10.37,2013-08-24 17:56:00,
2013-08-24 13:01:00,82.5,63.1,30.23,ESE,116,10.4,10.4,52,0.00,CLR,,0.01,826.0,WeatherDisplay:10.37,2013-08-24 18:01:00,
2013-08-24 13:06:00,82.6,63.7,30.22,SE,132,8.1,8.1,53,0.00,CLR,,0.01,823.0,WeatherDisplay:10.37,2013-08-24 18:06:00,
2013-08-24 13:11:00,82.9,63.5,30.22,SE,146,9.2,9.2,52,0.00,CLR,,0.01,823.0,WeatherDisplay:10.37,2013-08-24 18:11:00,
2013-08-24 13:16:00,83.0,63.6,30.22,ESE,111,10.0,10.0,52,0.00,CLR,,0.01,816.0,WeatherDisplay:10.37,2013-08-24 18:16:00,
2013-08-24 13:21:00,83.1,64.7,30.22,SE,124,6.9,6.9,54,0.00,CLR,,0.01,814.0,WeatherDisplay:10.37,2013-08-24 18:21:00,
2013-08-24 13:26:00,83.0,63.6,30.22,ESE,119,9.0,9.0,52,0.00,CLR,,0.01,817.0,WeatherDisplay:10.37,2013-08-24 18:26:00,
2013-08-24 13:31:00,83.1,64.2,30.22,SSE,155,9.2,9.2,53,0.00,CLR,,0.01,814.0,WeatherDisplay:10.37,2013-08-24 18:31:00,
2013-08-24 13:36:00,83.1,62.5,30.22,SSE,155,6.9,6.9,50,0.00,CLR,,0.01,812.0,WeatherDisplay:10.37,2013-08-24 18:36:00,
2013-08-24 13:41:00,82.9,65.6,30.22,ESE,113,10.4,10.4,56,0.00,CLR,,0.01,805.0,WeatherDisplay:10.37,2013-08-24 18:41:00,
2013-08-24 13:46:00,83.0,65.2,30.22,SE,133,8.1,8.1,55,0.00,CLR,,0.01,800.0,WeatherDisplay:10.37,2013-08-24 18:46:00,
2013-08-24 13:51:00,82.9,62.4,30.22,SE,137,8.1,8.1,50,0.00,CLR,,0.01,795.0,WeatherDisplay:10.37,2013-08-24 18:51:00,
2013-08-24 13:56:00,82.7,62.7,30.22,SSE,157,10.4,10.4,51,0.00,CLR,,0.01,795.0,WeatherDisplay:10.37,2013-08-24 18:56:00,
2013-08-24 14:01:00,82.8,65.0,30.22,ESE,118,8.1,8.1,55,0.00,CLR,,0.01,780.0,WeatherDisplay:10.37,2013-08-24 19:01:00,
2013-08-24 14:07:00,83.1,64.7,30.22,SSE,157,8.1,8.1,54,0.00,CLR,,0.01,775.0,WeatherDisplay:10.37,2013-08-24 19:07:00,
2013-08-24 14:12:00,83.2,63.7,30.22,SE,140,8.1,8.1,52,0.00,CLR,,0.01,775.0,WeatherDisplay:10.37,2013-08-24 19:12:00,
2013-08-24 14:17:00,83.2,62.6,30.22,SSE,149,8.1,8.1,50,0.00,CLR,,0.01,765.0,WeatherDisplay:10.37,2013-08-24 19:17:00,
2013-08-24 14:22:00,83.1,64.7,30.22,East,98,4.6,4.6,54,0.00,CLR,,0.01,766.0,WeatherDisplay:10.37,2013-08-24 19:22:00,
2013-08-24 14:27:00,83.4,63.9,30.22,ESE,119,8.1,8.1,52,0.00,CLR,,0.01,756.0,WeatherDisplay:10.37,2013-08-24 19:27:00,
2013-08-24 14:32:00,83.2,63.7,30.22,East,96,5.0,5.0,52,0.00,CLR,,0.01,752.0,WeatherDisplay:10.37,2013-08-24 19:32:00,
2013-08-24 14:37:00,83.4,64.5,30.22,South,169,15.0,15.0,53,0.00,CLR,,0.01,745.0,WeatherDisplay:10.37,2013-08-24 19:37:00,
2013-08-24 14:42:00,83.2,63.7,30.22,SE,138,8.1,8.1,52,0.00,CLR,,0.01,729.0,WeatherDisplay:10.37,2013-08-24 19:42:00,
2013-08-24 14:47:00,83.3,63.8,30.22,South,184,5.8,5.8,52,0.00,CLR,,0.01,724.0,WeatherDisplay:10.37,2013-08-24 19:47:00,
2013-08-24 14:52:00,83.2,65.4,30.21,SE,142,6.9,6.9,55,0.00,CLR,,0.01,710.0,WeatherDisplay:10.37,2013-08-24 19:52:00,
2013-08-24 14:57:00,83.0,63.0,30.21,ESE,111,8.1,8.1,51,0.00,CLR,,0.01,703.0,WeatherDisplay:10.37,2013-08-24 19:57:00,
2013-08-24 15:02:00,83.0,64.1,30.21,South,190,6.0,6.0,53,0.00,CLR,,0.01,701.0,WeatherDisplay:10.37,2013-08-24 20:02:00,
2013-08-24 15:07:00,82.9,64.0,30.21,SE,130,8.1,8.1,53,0.00,CLR,,0.01,691.0,WeatherDisplay:10.37,2013-08-24 20:07:00,
2013-08-24 15:12:00,83.0,62.4,30.21,ESE,119,3.5,3.5,50,0.00,CLR,,0.01,682.0,WeatherDisplay:10.37,2013-08-24 20:12:00,
2013-08-24 15:17:00,83.2,64.3,30.21,SSE,148,8.1,8.1,53,0.00,CLR,,0.01,670.0,WeatherDisplay:10.37,2013-08-24 20:17:00,
2013-08-24 15:22:00,83.1,62.0,30.20,ESE,121,4.6,4.6,49,0.00,CLR,,0.01,656.0,WeatherDisplay:10.37,2013-08-24 20:22:00,
2013-08-24 15:27:00,83.2,64.3,30.20,South,189,5.8,5.8,53,0.00,CLR,,0.01,649.0,WeatherDisplay:10.37,2013-08-24 20:27:00,
2013-08-24 15:32:00,83.2,64.3,30.20,SE,131,6.9,6.9,53,0.00,CLR,,0.01,636.0,WeatherDisplay:10.37,2013-08-24 20:32:00,
2013-08-24 15:37:00,83.4,63.9,30.20,ESE,123,8.1,8.1,52,0.00,CLR,,0.01,629.0,WeatherDisplay:10.37,2013-08-24 20:37:00,
2013-08-24 15:42:00,83.4,63.4,30.20,SSE,150,5.8,5.8,51,0.00,CLR,,0.01,617.0,WeatherDisplay:10.37,2013-08-24 20:42:00,
2013-08-24 15:47:00,83.4,63.9,30.19,East,97,9.2,9.2,52,0.00,CLR,,0.01,605.0,WeatherDisplay:10.37,2013-08-24 20:47:00,
2013-08-24 15:52:00,83.4,63.4,30.19,ESE,107,3.5,3.5,51,0.00,CLR,,0.01,594.0,WeatherDisplay:10.37,2013-08-24 20:52:00,
2013-08-24 15:57:00,83.6,64.1,30.19,SE,143,6.9,6.9,52,0.00,CLR,,0.01,580.0,WeatherDisplay:10.37,2013-08-24 20:57:00,
2013-08-24 16:02:00,83.5,62.3,30.19,ESE,121,3.5,3.5,49,0.00,CLR,,0.01,566.0,WeatherDisplay:10.37,2013-08-24 21:02:00,
2013-08-24 16:07:00,83.4,65.0,30.19,ESE,105,4.6,4.6,54,0.00,CLR,,0.01,552.0,WeatherDisplay:10.37,2013-08-24 21:07:00,
2013-08-24 16:12:00,83.5,64.6,30.19,ESE,116,5.8,5.8,53,0.00,CLR,,0.01,541.0,WeatherDisplay:10.37,2013-08-24 21:12:00,
2013-08-24 16:17:00,83.5,64.0,30.19,SSE,153,3.5,3.5,52,0.00,CLR,,0.01,531.0,WeatherDisplay:10.37,2013-08-24 21:17:00,
2013-08-24 16:22:00,83.2,63.2,30.19,SSE,153,6.0,6.0,51,0.00,CLR,,0.01,517.0,WeatherDisplay:10.37,2013-08-24 21:22:00,
2013-08-24 16:27:00,83.1,63.7,30.18,ESE,119,4.0,4.0,52,0.00,CLR,,0.01,499.0,WeatherDisplay:10.37,2013-08-24 21:27:00,
2013-08-24 16:32:00,83.3,64.4,30.19,East,101,6.0,6.0,53,0.00,CLR,,0.01,487.0,WeatherDisplay:10.37,2013-08-24 21:32:00,
2013-08-24 16:37:00,83.2,64.3,30.18,SSE,150,3.5,3.5,53,0.00,CLR,,0.01,473.0,WeatherDisplay:10.37,2013-08-24 21:37:00,
2013-08-24 16:42:00,82.9,63.5,30.18,SSE,155,5.0,5.0,52,0.00,CLR,,0.01,457.0,WeatherDisplay:10.37,2013-08-24 21:42:00,
2013-08-24 16:47:00,82.8,63.9,30.18,SE,140,5.8,5.8,53,0.00,CLR,,0.01,445.0,WeatherDisplay:10.37,2013-08-24 21:47:00,
2013-08-24 16:52:00,82.8,62.8,30.19,SE,138,5.8,5.8,51,0.00,CLR,,0.01,429.0,WeatherDisplay:10.37,2013-08-24 21:52:00,
2013-08-24 16:57:00,82.7,63.8,30.19,SE,125,5.8,5.8,53,0.00,CLR,,0.01,417.0,WeatherDisplay:10.37,2013-08-24 21:57:00,
2013-08-24 17:02:00,82.7,62.7,30.19,ESE,115,6.9,6.9,51,0.00,CLR,,0.01,401.0,WeatherDisplay:10.37,2013-08-24 22:02:00,
2013-08-24 17:07:00,82.6,62.1,30.19,ESE,114,5.0,5.0,50,0.00,CLR,,0.01,385.0,WeatherDisplay:10.37,2013-08-24 22:07:00,
2013-08-24 17:12:00,82.6,62.6,30.19,ESE,110,6.9,6.9,51,0.00,CLR,,0.01,369.0,WeatherDisplay:10.37,2013-08-24 22:12:00,
2013-08-24 17:17:00,82.6,63.2,30.18,SE,128,4.6,4.6,52,0.00,CLR,,0.01,353.0,WeatherDisplay:10.37,2013-08-24 22:17:00,
2013-08-24 17:22:00,82.4,62.5,30.19,SE,134,6.0,6.0,51,0.00,CLR,,0.01,339.0,WeatherDisplay:10.37,2013-08-24 22:22:00,
2013-08-24 17:27:00,82.3,62.9,30.19,ESE,112,5.8,5.8,52,0.00,CLR,,0.01,325.0,WeatherDisplay:10.37,2013-08-24 22:27:00,
2013-08-24 17:32:00,82.2,63.4,30.19,ESE,118,4.6,4.6,53,0.00,CLR,,0.01,313.0,WeatherDisplay:10.37,2013-08-24 22:32:00,
2013-08-24 17:37:00,82.1,63.3,30.19,ESE,120,5.8,5.8,53,0.00,CLR,,0.01,297.0,WeatherDisplay:10.37,2013-08-24 22:37:00,
2013-08-24 17:42:00,81.9,64.1,30.18,East,88,6.9,6.9,55,0.00,CLR,,0.01,281.0,WeatherDisplay:10.37,2013-08-24 22:42:00,
2013-08-24 17:47:00,81.6,64.4,30.18,ESE,121,6.0,6.0,56,0.00,CLR,,0.01,267.0,WeatherDisplay:10.37,2013-08-24 22:47:00,
2013-08-24 17:52:00,81.3,64.6,30.19,ESE,102,5.8,5.8,57,0.00,CLR,,0.01,251.0,WeatherDisplay:10.37,2013-08-24 22:52:00,
2013-08-24 17:57:00,81.1,64.9,30.18,ESE,109,4.0,4.0,58,0.00,CLR,,0.01,234.0,WeatherDisplay:10.37,2013-08-24 22:57:00,
2013-08-24 18:02:00,80.9,65.2,30.18,ESE,103,5.0,5.0,59,0.00,CLR,,0.01,216.0,WeatherDisplay:10.37,2013-08-24 23:02:00,
2013-08-24 18:07:00,80.6,65.4,30.18,ESE,108,4.0,4.0,60,0.00,CLR,,0.01,200.0,WeatherDisplay:10.37,2013-08-24 23:07:00,
2013-08-24 18:12:00,80.3,65.1,30.18,ESE,103,3.5,3.5,60,0.00,CLR,,0.01,181.0,WeatherDisplay:10.37,2013-08-24 23:12:00,
2013-08-24 18:17:00,80.0,65.3,30.18,ESE,104,3.5,3.5,61,0.00,CLR,,0.01,162.0,WeatherDisplay:10.37,2013-08-24 23:17:00,
2013-08-24 18:22:00,79.6,65.0,30.18,ESE,121,4.6,4.6,61,0.00,CLR,,0.01,142.0,WeatherDisplay:10.37,2013-08-24 23:22:00,
2013-08-24 18:27:00,79.2,65.1,30.18,ESE,113,3.5,3.5,62,0.00,CLR,,0.01,125.0,WeatherDisplay:10.37,2013-08-24 23:27:00,
2013-08-24 18:32:00,78.7,64.6,30.18,ESE,109,3.5,3.5,62,0.00,CLR,,0.01,109.0,WeatherDisplay:10.37,2013-08-24 23:32:00,
2013-08-24 18:37:00,78.1,64.9,30.18,ESE,109,3.5,3.5,64,0.00,CLR,,0.01,32.0,WeatherDisplay:10.37,2013-08-24 23:37:00,
2013-08-24 18:42:00,77.6,64.5,30.18,ESE,111,3.5,3.5,64,0.00,CLR,,0.01,30.0,WeatherDisplay:10.37,2013-08-24 23:42:00,
2013-08-24 18:47:00,77.0,64.8,30.18,ESE,111,3.5,3.5,66,0.00,CLR,,0.01,28.0,WeatherDisplay:10.37,2013-08-24 23:47:00,
2013-08-24 18:52:00,76.3,64.5,30.18,ESE,111,3.5,3.5,67,0.00,CLR,,0.01,26.0,WeatherDisplay:10.37,2013-08-24 23:52:00,
2013-08-24 18:57:00,75.8,64.5,30.18,ESE,111,2.3,2.3,68,0.00,CLR,,0.01,23.0,WeatherDisplay:10.37,2013-08-24 23:57:00,
2013-08-24 19:02:00,75.2,64.3,30.18,ESE,111,2.3,2.3,69,0.00,CLR,,0.01,21.0,WeatherDisplay:10.37,2013-08-25 00:02:00,
2013-08-24 19:07:00,74.6,64.2,30.18,ESE,111,2.3,2.3,70,0.00,CLR,,0.01,18.0,WeatherDisplay:10.37,2013-08-25 00:07:00,
2013-08-24 19:12:00,74.1,64.1,30.18,ESE,111,2.3,2.3,71,0.00,CLR,,0.01,16.0,WeatherDisplay:10.37,2013-08-25 00:12:00,
2013-08-24 19:17:00,73.5,63.9,30.18,ESE,111,3.5,3.5,72,0.00,CLR,,0.01,12.0,WeatherDisplay:10.37,2013-08-25 00:17:00,
2013-08-24 19:22:00,72.9,63.7,30.18,ESE,111,2.3,2.3,73,0.00,CLR,,0.01,9.0,WeatherDisplay:10.37,2013-08-25 00:22:00,
2013-08-24 19:27:00,72.4,63.6,30.18,ESE,111,1.1,1.1,74,0.00,CLR,,0.01,5.0,WeatherDisplay:10.37,2013-08-25 00:27:00,
2013-08-24 19:32:00,72.0,63.3,30.18,ESE,111,2.3,2.3,74,0.00,CLR,,0.01,0.0,WeatherDisplay:10.37,2013-08-25 00:32:00,
2013-08-24 19:37:00,71.4,63.4,30.18,ESE,111,2.3,2.3,76,0.00,CLR,,0.01,0.0,WeatherDisplay:10.37,2013-08-25 00:37:00,
2013-08-24 19:42:00,70.9,63.3,30.18,ESE,111,2.3,2.3,77,0.00,CLR,,0.01,0.0,WeatherDisplay:10.37,2013-08-25 00:42:00,
2013-08-24 19:47:00,70.4,62.8,30.18,ESE,111,2.3,2.3,77,0.00,CLR,,0.01,0.0,WeatherDisplay:10.37,2013-08-25 00:47:00,
2013-08-24 19:52:00,70.0,62.8,30.18,ESE,111,1.1,1.1,78,0.00,CLR,,0.01,0.0,WeatherDisplay:10.37,2013-08-25 00:52:00,
2013-08-24 19:57:00,69.6,62.8,30.19,ESE,111,2.3,2.3,79,0.00,CLR,,0.01,0.0,WeatherDisplay:10.37,2013-08-25 00:57:00,
2013-08-24 20:02:00,69.3,62.5,30.19,ESE,111,2.3,2.3,79,0.00,CLR,,0.01,0.0,WeatherDisplay:10.37,2013-08-25 01:02:00,
2013-08-24 20:07:00,69.0,62.2,30.19,ESE,111,2.3,2.3,79,0.00,CLR,,0.01,0.0,WeatherDisplay:10.37,2013-08-25 01:07:00,
2013-08-24 20:12:00,68.6,61.8,30.19,ESE,111,2.3,2.3,79,0.00,CLR,,0.01,0.0,WeatherDisplay:10.37,2013-08-25 01:12:00,
2013-08-24 20:17:00,68.3,61.9,30.19,ESE,111,2.3,2.3,80,0.00,CLR,,0.01,0.0,WeatherDisplay:10.37,2013-08-25 01:17:00,
2013-08-24 20:22:00,68.1,62.0,30.20,ESE,111,1.1,1.1,81,0.00,CLR,,0.01,0.0,WeatherDisplay:10.37,2013-08-25 01:22:00,
2013-08-24 20:27:00,67.8,61.8,30.20,ESE,111,2.3,2.3,81,0.00,CLR,,0.01,0.0,WeatherDisplay:10.37,2013-08-25 01:27:00,
2013-08-24 20:32:00,67.6,61.6,30.20,ESE,111,3.5,3.5,81,0.00,CLR,,0.01,0.0,WeatherDisplay:10.37,2013-08-25 01:32:00,
2013-08-24 20:38:00,67.2,61.2,30.20,ESE,111,2.3,2.3,81,0.00,CLR,,0.01,0.0,WeatherDisplay:10.37,2013-08-25 01:38:00,
2013-08-24 20:43:00,66.8,60.8,30.20,ESE,111,3.5,3.5,81,0.00,CLR,,0.01,0.0,WeatherDisplay:10.37,2013-08-25 01:43:00,
2013-08-24 20:48:00,66.6,60.6,30.20,ESE,111,2.3,2.3,81,0.00,CLR,,0.01,0.0,WeatherDisplay:10.37,2013-08-25 01:48:00,
2013-08-24 20:53:00,66.4,60.4,30.20,ESE,111,2.3,2.3,81,0.00,CLR,,0.01,0.0,WeatherDisplay:10.37,2013-08-25 01:53:00,
2013-08-24 20:58:00,66.2,60.2,30.20,ESE,111,3.5,3.5,81,0.00,CLR,,0.01,0.0,WeatherDisplay:10.37,2013-08-25 01:58:00,
2013-08-24 21:03:00,66.0,60.0,30.20,ESE,111,2.3,2.3,81,0.00,CLR,,0.01,0.0,WeatherDisplay:10.37,2013-08-25 02:03:00,
2013-08-24 21:08:00,65.8,59.8,30.20,ESE,111,2.3,2.3,81,0.00,CLR,,0.01,0.0,WeatherDisplay:10.37,2013-08-25 02:08:00,
2013-08-24 21:13:00,65.6,60.0,30.21,ESE,111,2.3,2.3,82,0.00,CLR,,0.01,0.0,WeatherDisplay:10.37,2013-08-25 02:13:00,
2013-08-24 21:18:00,65.4,59.8,30.20,ESE,111,2.3,2.3,82,0.00,CLR,,0.01,0.0,WeatherDisplay:10.37,2013-08-25 02:18:00,
2013-08-24 21:23:00,65.3,59.7,30.20,ESE,111,2.3,2.3,82,0.00,CLR,,0.01,0.0,WeatherDisplay:10.37,2013-08-25 02:23:00,
2013-08-24 21:28:00,65.1,59.8,30.20,ESE,111,2.3,2.3,83,0.00,CLR,,0.01,0.0,WeatherDisplay:10.37,2013-08-25 02:28:00,
2013-08-24 21:33:00,64.9,59.6,30.21,ESE,111,2.3,2.3,83,0.00,CLR,,0.01,0.0,WeatherDisplay:10.37,2013-08-25 02:33:00,
2013-08-24 21:38:00,64.9,59.6,30.20,ESE,111,1.1,1.1,83,0.00,CLR,,0.01,0.0,WeatherDisplay:10.37,2013-08-25 02:38:00,
2013-08-24 21:43:00,64.8,59.5,30.21,ESE,111,0.0,0.0,83,0.00,CLR,,0.01,0.0,WeatherDisplay:10.37,2013-08-25 02:43:00,
2013-08-24 21:48:00,64.6,59.7,30.21,ESE,111,2.3,2.3,84,0.00,CLR,,0.01,0.0,WeatherDisplay:10.37,2013-08-25 02:48:00,
2013-08-24 21:53:00,64.7,60.1,30.20,ESE,111,2.3,2.3,85,0.00,CLR,,0.01,0.0,WeatherDisplay:10.37,2013-08-25 02:53:00,
2013-08-24 21:58:00,64.5,59.6,30.21,ESE,111,1.1,1.1,84,0.00,CLR,,0.01,0.0,WeatherDisplay:10.37,2013-08-25 02:58:00,
2013-08-24 22:03:00,64.4,59.8,30.21,ESE,111,0.0,0.0,85,0.00,CLR,,0.01,0.0,WeatherDisplay:10.37,2013-08-25 03:03:00,
2013-08-24 22:08:00,64.3,60.0,30.21,ESE,111,0.0,0.0,86,0.00,CLR,,0.01,0.0,WeatherDisplay:10.37,2013-08-25 03:08:00,
2013-08-24 22:13:00,64.0,59.4,30.21,ESE,111,0.0,0.0,85,0.00,CLR,,0.01,0.0,WeatherDisplay:10.37,2013-08-25 03:13:00,
2013-08-24 22:18:00,63.6,59.3,30.21,ESE,111,0.0,0.0,86,0.00,CLR,,0.01,0.0,WeatherDisplay:10.37,2013-08-25 03:18:00,
2013-08-24 22:23:00,63.1,58.8,30.21,ESE,111,0.0,0.0,86,0.00,CLR,,0.01,0.0,WeatherDisplay:10.37,2013-08-25 03:23:00,
2013-08-24 22:28:00,62.6,58.7,30.21,ESE,111,0.0,0.0,87,0.00,CLR,,0.01,0.0,WeatherDisplay:10.37,2013-08-25 03:28:00,
2013-08-24 22:33:00,62.2,58.6,30.21,ESE,111,0.0,0.0,88,0.00,CLR,,0.01,0.0,WeatherDisplay:10.37,2013-08-25 03:33:00,
2013-08-24 22:38:00,62.0,58.7,30.21,ESE,111,0.0,0.0,89,0.00,CLR,,0.01,0.0,WeatherDisplay:10.37,2013-08-25 03:38:00,
2013-08-24 22:43:00,62.0,59.0,30.21,ESE,111,0.0,0.0,90,0.00,CLR,,0.01,0.0,WeatherDisplay:10.37,2013-08-25 03:43:00,
2013-08-24 22:48:00,62.0,59.0,30.21,ESE,111,0.0,0.0,90,0.00,CLR,,0.01,0.0,WeatherDisplay:10.37,2013-08-25 03:48:00,
2013-08-24 22:53:00,62.1,59.1,30.21,ESE,111,0.0,0.0,90,0.00,CLR,,0.01,0.0,WeatherDisplay:10.37,2013-08-25 03:53:00,
2013-08-24 22:58:00,61.9,58.3,30.21,ESE,111,0.0,0.0,88,0.00,CLR,,0.01,0.0,WeatherDisplay:10.37,2013-08-25 03:58:00,
2013-08-24 23:01:00,61.7,58.1,30.21,ESE,111,0.0,0.0,88,0.00,CLR,,0.01,0.0,WeatherDisplay:10.37,2013-08-25 04:01:00,
2013-08-24 23:02:00,61.7,58.1,30.21,ESE,111,0.0,0.0,88,0.00,CLR,,0.01,0.0,WeatherDisplay:10.37,2013-08-25 04:02:00,
2013-08-24 23:07:00,61.4,58.1,30.21,ESE,111,0.0,0.0,89,0.00,CLR,,0.01,0.0,WeatherDisplay:10.37,2013-08-25 04:07:00,
2013-08-24 23:12:00,61.2,57.9,30.21,ESE,111,0.0,0.0,89,0.00,CLR,,0.01,0.0,WeatherDisplay:10.37,2013-08-25 04:12:00,
2013-08-24 23:17:00,61.1,58.1,30.21,ESE,111,0.0,0.0,90,0.00,CLR,,0.01,0.0,WeatherDisplay:10.37,2013-08-25 04:17:00,
2013-08-24 23:23:00,60.9,57.9,30.21,ESE,111,0.0,0.1,90,0.00,CLR,,0.01,0.0,WeatherDisplay:10.37,2013-08-25 04:23:00,
2013-08-24 23:28:00,60.8,57.8,30.21,ESE,111,0.0,0.0,90,0.00,CLR,,0.01,0.0,WeatherDisplay:10.37,2013-08-25 04:28:00,
2013-08-24 23:33:00,60.7,57.7,30.21,ESE,111,0.0,0.0,90,0.00,CLR,,0.01,0.0,WeatherDisplay:10.37,2013-08-25 04:33:00,
2013-08-24 23:38:00,60.6,57.7,30.21,ESE,111,0.0,0.0,90,0.00,CLR,,0.01,0.0,WeatherDisplay:10.37,2013-08-25 04:38:00,
2013-08-24 23:43:00,60.5,57.2,30.21,ESE,111,0.0,0.0,89,0.00,CLR,,0.01,0.0,WeatherDisplay:10.37,2013-08-25 04:43:00,
2013-08-24 23:48:00,60.3,57.0,30.21,ESE,111,0.0,0.0,89,0.00,CLR,,0.01,0.0,WeatherDisplay:10.37,2013-08-25 04:48:00,
2013-08-24 23:53:00,60.3,57.4,30.21,ESE,111,0.0,0.0,90,0.00,CLR,,0.01,0.0,WeatherDisplay:10.37,2013-08-25 04:53:00,
2013-08-24 23:58:00,60.2,57.3,30.21,ESE,111,0.0,0.0,90,0.00,CLR,,0.01,0.0,WeatherDisplay:10.37,2013-08-25 04:58:00,